White Pine, Tennessee
Current Conditions -  °F | °C
As of 5:35 AM on Thursday 27 Nov 2014 (Local Time) from KMOR Reporting Station
Broken Clouds Broken Clouds  
Wind Chill: 33°   Ceiling: 5000
Heat Index: 37°   Visibility: 10mi
Dew Point: 37°   Wind: 6mph
Humidity: 100%   Direction: 280°W
Pressure: 30.04"   Gusts: NA
Location:  36.11°N, 83.29°W
Report Text: KMOR 271035Z AUTO 28005KT 10SM FEW010 SCT043 BKN050 03/03 A3004 RMK
Loading
Personal Weather Stations






























Interactive Weather Map New forecast layout! Learn more

10-Day Weather Forecast

Advertisements
Track Severe Weather on mobile